createdAt,value
2024-01-29T00:00:53.877Z,4.32
2024-01-29T00:03:21.767Z,4.38
2024-01-29T00:05:49.593Z,4.28
2024-01-29T00:08:17.379Z,4.29
2024-01-29T00:10:49.038Z,4.20
2024-01-29T00:13:16.940Z,4.24
2024-01-29T00:15:44.636Z,4.19
2024-01-29T00:18:12.419Z,4.16
2024-01-29T00:20:40.213Z,4.16
2024-01-29T00:23:08.296Z,4.21
2024-01-29T00:25:36.419Z,4.12
2024-01-29T00:28:06.431Z,4.12
2024-01-29T00:30:35.551Z,4.06
2024-01-29T00:33:03.471Z,4.01
2024-01-29T00:35:31.235Z,3.96
2024-01-29T00:37:58.985Z,3.92
2024-01-29T00:40:26.825Z,3.92
2024-01-29T00:42:54.534Z,3.89
2024-01-29T00:45:23.777Z,3.92
2024-01-29T00:47:51.614Z,3.84
2024-01-29T00:50:19.441Z,3.76
2024-01-29T00:52:50.409Z,3.80
2024-01-29T00:55:18.195Z,3.77
2024-01-29T00:57:46.024Z,3.70
2024-01-29T01:00:15.500Z,3.73
2024-01-29T01:02:44.680Z,3.76
2024-01-29T01:05:12.614Z,3.74
2024-01-29T01:07:40.397Z,3.74
2024-01-29T01:10:09.422Z,3.73
2024-01-29T01:12:37.258Z,3.78
2024-01-29T01:15:05.598Z,3.83
2024-01-29T01:17:35.614Z,3.79
2024-01-29T01:20:05.673Z,3.75
2024-01-29T01:22:33.705Z,3.72
2024-01-29T01:25:01.543Z,3.69
2024-01-29T01:27:29.381Z,3.70
2024-01-29T01:29:57.189Z,3.69
2024-01-29T01:32:25.042Z,3.65
2024-01-29T01:34:52.801Z,3.62
2024-01-29T01:37:21.912Z,3.62
2024-01-29T01:39:53.777Z,3.58
2024-01-29T01:42:22.239Z,3.60
2024-01-29T01:44:50.085Z,3.55
2024-01-29T01:47:17.918Z,3.53
2024-01-29T01:49:45.854Z,3.50
2024-01-29T01:52:13.876Z,3.53
2024-01-29T01:54:43.008Z,3.50
2024-01-29T01:57:11.799Z,3.46
2024-01-29T01:59:41.101Z,3.44
2024-01-29T02:02:09.617Z,3.43
2024-01-29T02:04:39.349Z,3.45
2024-01-29T02:07:07.617Z,3.48
2024-01-29T02:09:38.131Z,3.46
2024-01-29T02:12:07.748Z,3.50
2024-01-29T02:14:36.018Z,3.48
2024-01-29T02:17:04.421Z,3.47
2024-01-29T02:19:32.599Z,3.51
2024-01-29T02:22:00.519Z,3.46
2024-01-29T02:24:29.697Z,3.42
2024-01-29T02:26:57.473Z,3.40
2024-01-29T02:29:25.652Z,3.40
2024-01-29T02:31:53.404Z,3.37
2024-01-29T02:34:21.581Z,3.37
2024-01-29T02:36:49.435Z,3.34
2024-01-29T02:39:17.150Z,3.36
2024-01-29T02:41:48.153Z,3.33
2024-01-29T02:44:15.837Z,3.36
2024-01-29T02:46:43.594Z,3.33
2024-01-29T02:49:11.471Z,3.32
2024-01-29T02:51:39.289Z,3.32
2024-01-29T02:54:07.099Z,3.35
2024-01-29T02:56:37.201Z,3.34
2024-01-29T02:59:06.311Z,3.34
2024-01-29T03:01:34.203Z,3.33
2024-01-29T03:04:02.118Z,3.32
2024-01-29T03:06:29.948Z,3.30
2024-01-29T03:08:57.758Z,3.13
2024-01-29T03:11:25.682Z,3.32
2024-01-29T03:13:53.465Z,3.24
2024-01-29T03:16:22.557Z,3.28
2024-01-29T03:18:50.345Z,3.28
2024-01-29T03:21:18.122Z,3.26
2024-01-29T03:23:45.860Z,3.25
2024-01-29T03:26:13.618Z,3.21
2024-01-29T03:28:43.123Z,3.27
2024-01-29T03:31:10.947Z,3.30
2024-01-29T03:33:40.233Z,3.31
2024-01-29T03:36:09.496Z,3.38
2024-01-29T03:38:38.897Z,3.31
2024-01-29T03:41:06.632Z,3.31
2024-01-29T03:43:36.791Z,3.31
2024-01-29T03:46:04.861Z,3.28
2024-01-29T03:48:32.736Z,3.22
2024-01-29T03:51:01.869Z,3.21
2024-01-29T03:53:29.669Z,3.22
2024-01-29T03:55:58.389Z,3.17
2024-01-29T03:58:26.258Z,3.15
2024-01-29T04:00:54.142Z,3.18
2024-01-29T04:03:22.015Z,3.19
2024-01-29T04:05:49.791Z,3.16
2024-01-29T04:08:19.030Z,3.17
2024-01-29T04:10:46.788Z,3.16
2024-01-29T04:13:14.589Z,3.12
2024-01-29T04:15:42.369Z,3.11
2024-01-29T04:18:10.307Z,3.12
2024-01-29T04:20:38.143Z,3.12
2024-01-29T04:23:05.884Z,3.12
2024-01-29T04:25:37.388Z,3.09
2024-01-29T04:28:05.612Z,3.13
2024-01-29T04:30:33.733Z,3.12
2024-01-29T04:33:01.823Z,3.16
2024-01-29T04:35:29.478Z,3.10
2024-01-29T04:37:57.176Z,3.10
2024-01-29T04:40:25.015Z,3.06
2024-01-29T04:42:54.160Z,3.12
2024-01-29T04:45:21.964Z,3.08
2024-01-29T04:47:49.802Z,3.11
2024-01-29T04:50:17.921Z,3.12
2024-01-29T04:52:45.773Z,3.11
2024-01-29T04:55:13.624Z,3.13
2024-01-29T04:57:41.424Z,3.12
2024-01-29T05:00:11.879Z,3.15
2024-01-29T05:02:39.617Z,3.13
2024-01-29T05:05:07.492Z,3.11
2024-01-29T05:07:38.165Z,3.14
2024-01-29T05:10:06.592Z,3.11
2024-01-29T05:12:34.809Z,3.16
2024-01-29T05:15:02.677Z,3.15
2024-01-29T05:17:31.748Z,3.11
2024-01-29T05:19:59.551Z,3.08
2024-01-29T05:22:27.425Z,3.04
2024-01-29T05:24:55.269Z,3.11
2024-01-29T05:27:23.098Z,3.08
2024-01-29T05:29:50.841Z,3.08
2024-01-29T05:32:18.683Z,3.02
2024-01-29T05:34:50.207Z,3.05
2024-01-29T05:37:17.998Z,3.03
2024-01-29T05:39:45.728Z,3.03
2024-01-29T05:42:13.550Z,2.98
2024-01-29T05:44:41.302Z,3.01
2024-01-29T05:47:09.051Z,2.98
2024-01-29T05:49:37.473Z,2.99
2024-01-29T05:52:07.135Z,2.98
2024-01-29T05:54:34.952Z,3.00
2024-01-29T05:57:03.325Z,2.92
2024-01-29T05:59:31.109Z,3.00
2024-01-29T06:01:58.938Z,3.02
2024-01-29T06:04:26.801Z,3.04
2024-01-29T06:06:54.752Z,3.05
2024-01-29T06:09:24.477Z,3.12
2024-01-29T06:11:52.460Z,3.11
2024-01-29T06:14:20.323Z,3.17
2024-01-29T06:16:48.054Z,3.19
2024-01-29T06:19:18.900Z,3.18
2024-01-29T06:21:47.149Z,3.22
2024-01-29T06:24:14.901Z,3.17
2024-01-29T06:26:46.516Z,3.23
2024-01-29T06:29:15.782Z,3.21
2024-01-29T06:31:43.934Z,3.19
2024-01-29T06:34:11.882Z,3.25
2024-01-29T06:36:39.971Z,3.25
2024-01-29T06:39:08.706Z,3.25
2024-01-29T06:41:36.700Z,3.21
2024-01-29T06:44:06.136Z,3.19
2024-01-29T06:46:33.925Z,3.21
2024-01-29T06:49:01.815Z,3.22
2024-01-29T06:51:29.617Z,3.22
2024-01-29T06:53:58.657Z,3.19
2024-01-29T06:56:26.406Z,3.23
2024-01-29T06:58:54.290Z,3.22
2024-01-29T07:01:23.524Z,3.31
2024-01-29T07:03:51.424Z,3.33
2024-01-29T07:06:19.880Z,3.33
2024-01-29T07:08:50.236Z,3.38
2024-01-29T07:11:18.125Z,3.43
2024-01-29T07:13:45.917Z,3.44
2024-01-29T07:16:13.720Z,3.46
2024-01-29T07:18:42.937Z,3.48
2024-01-29T07:21:11.733Z,3.45
2024-01-29T07:23:39.713Z,3.44
2024-01-29T07:26:07.483Z,3.48
2024-01-29T07:28:35.858Z,3.45
2024-01-29T07:31:03.651Z,3.46
2024-01-29T07:33:31.591Z,3.46
2024-01-29T07:36:00.739Z,3.45
2024-01-29T07:38:28.816Z,3.45
2024-01-29T07:40:56.725Z,3.42
2024-01-29T07:43:24.579Z,3.42
2024-01-29T07:45:53.025Z,3.43
2024-01-29T07:48:21.850Z,3.44
2024-01-29T07:50:49.636Z,3.44
2024-01-29T07:53:18.971Z,3.42
2024-01-29T07:55:46.874Z,3.42
2024-01-29T07:58:14.795Z,3.47
2024-01-29T08:00:43.371Z,3.49
2024-01-29T08:03:11.216Z,3.48
2024-01-29T08:05:39.035Z,3.54
2024-01-29T08:08:07.970Z,3.53
2024-01-29T08:10:40.140Z,3.54
2024-01-29T08:13:08.116Z,3.57
2024-01-29T08:15:38.863Z,3.56
2024-01-29T08:18:07.917Z,3.58
2024-01-29T08:20:38.841Z,3.63
2024-01-29T08:23:06.809Z,3.48
2024-01-29T08:25:36.862Z,3.67
2024-01-29T08:28:06.782Z,3.73
2024-01-29T08:30:36.721Z,3.72
2024-01-29T08:33:04.991Z,3.76
2024-01-29T08:35:32.799Z,3.75
2024-01-29T08:38:01.711Z,3.80
2024-01-29T08:40:30.852Z,3.79
2024-01-29T08:42:59.031Z,3.81
2024-01-29T08:45:28.195Z,3.83
2024-01-29T08:47:56.135Z,3.87
2024-01-29T08:50:23.972Z,3.86
2024-01-29T08:52:51.734Z,3.87
2024-01-29T08:55:19.476Z,3.91
2024-01-29T08:57:50.672Z,3.96
2024-01-29T09:00:19.051Z,3.96
2024-01-29T09:02:50.538Z,3.99
2024-01-29T09:05:18.905Z,3.96
2024-01-29T09:07:46.719Z,4.10
2024-01-29T09:10:14.649Z,4.11
2024-01-29T09:12:42.434Z,4.22
2024-01-29T09:15:10.910Z,4.20
2024-01-29T09:17:38.947Z,4.24
2024-01-29T09:20:13.410Z,4.29
2024-01-29T09:22:41.316Z,4.32
2024-01-29T09:25:09.510Z,4.45
2024-01-29T09:27:37.929Z,4.43
2024-01-29T09:30:06.799Z,4.55
2024-01-29T09:32:34.926Z,4.57
2024-01-29T09:35:02.927Z,4.54
2024-01-29T09:37:32.152Z,4.68
2024-01-29T09:39:59.892Z,4.82
2024-01-29T09:42:31.631Z,4.86
2024-01-29T09:45:02.881Z,4.87
2024-01-29T09:47:32.574Z,4.94
2024-01-29T09:50:01.110Z,4.91
2024-01-29T09:52:29.782Z,4.90
2024-01-29T09:55:00.071Z,5.03
2024-01-29T09:57:27.917Z,5.07
2024-01-29T09:59:55.718Z,5.08
2024-01-29T10:02:26.454Z,5.15
2024-01-29T10:04:54.292Z,5.23
2024-01-29T10:07:22.222Z,5.31
2024-01-29T10:09:52.707Z,5.30
2024-01-29T10:12:29.270Z,5.42
2024-01-29T10:14:58.030Z,5.57
2024-01-29T10:17:26.849Z,5.57
2024-01-29T10:19:54.922Z,5.64
2024-01-29T10:22:25.466Z,5.70
2024-01-29T10:25:01.852Z,5.76
2024-01-29T10:27:31.133Z,5.83
2024-01-29T10:29:58.926Z,5.93
2024-01-29T10:32:27.055Z,6.00
2024-01-29T10:34:55.074Z,6.09
2024-01-29T10:37:23.904Z,6.16
2024-01-29T10:39:59.474Z,6.31
2024-01-29T10:42:32.612Z,6.43
2024-01-29T10:45:03.405Z,6.45
2024-01-29T10:47:35.715Z,6.59
2024-01-29T10:50:04.215Z,6.59
2024-01-29T10:52:33.400Z,6.57
2024-01-29T10:55:01.796Z,6.59
2024-01-29T10:57:32.167Z,6.64
2024-01-29T11:00:02.598Z,6.70
2024-01-29T11:02:31.170Z,6.69
2024-01-29T11:04:59.024Z,6.74
2024-01-29T11:07:30.115Z,6.71
2024-01-29T11:10:08.150Z,6.71
2024-01-29T11:12:41.078Z,6.79
2024-01-29T11:15:11.780Z,6.87
2024-01-29T11:17:41.606Z,6.92
2024-01-29T11:20:13.626Z,7.00
2024-01-29T11:22:42.288Z,7.07
2024-01-29T11:25:14.089Z,7.10
2024-01-29T11:27:42.704Z,7.09
2024-01-29T11:30:17.408Z,7.18
2024-01-29T11:32:47.940Z,7.23
2024-01-29T11:35:21.263Z,7.29
2024-01-29T11:37:53.413Z,7.32
2024-01-29T11:40:35.302Z,7.38
2024-01-29T11:43:10.808Z,7.54
2024-01-29T11:45:40.197Z,7.51
2024-01-29T11:48:12.050Z,7.53
2024-01-29T11:50:40.502Z,7.55
2024-01-29T11:53:11.842Z,7.62
2024-01-29T11:55:40.005Z,7.71
2024-01-29T11:58:13.977Z,7.81
2024-01-29T12:00:44.720Z,7.97
2024-01-29T12:03:15.989Z,7.87
2024-01-29T12:05:44.004Z,7.89
2024-01-29T12:08:16.273Z,7.91
2024-01-29T12:10:44.331Z,7.94
2024-01-29T12:13:15.458Z,7.93
2024-01-29T12:15:45.614Z,8.03
2024-01-29T12:18:18.295Z,8.06
2024-01-29T12:20:48.446Z,7.94
2024-01-29T12:23:17.705Z,7.85
2024-01-29T12:25:46.021Z,7.81
2024-01-29T12:28:16.952Z,7.82
2024-01-29T12:30:54.134Z,7.80
2024-01-29T12:33:28.982Z,7.77
2024-01-29T12:35:57.314Z,7.76
2024-01-29T12:38:25.373Z,7.77
2024-01-29T12:40:57.040Z,7.83
2024-01-29T12:43:28.463Z,7.86
2024-01-29T12:46:06.304Z,7.85
2024-01-29T12:48:35.778Z,7.86
2024-01-29T12:51:03.930Z,7.84
2024-01-29T12:53:31.734Z,7.86
2024-01-29T12:55:59.675Z,7.90
2024-01-29T12:58:27.631Z,7.92
2024-01-29T13:00:55.790Z,7.93
2024-01-29T13:03:25.648Z,7.92
2024-01-29T13:05:55.265Z,7.92
2024-01-29T13:08:24.976Z,7.92
2024-01-29T13:10:52.763Z,7.95
2024-01-29T13:13:23.366Z,8.01
2024-01-29T13:15:52.482Z,8.09
2024-01-29T13:18:20.502Z,8.18
2024-01-29T13:20:49.709Z,8.18
2024-01-29T13:23:18.406Z,8.33
2024-01-29T13:25:48.161Z,8.30
2024-01-29T13:28:15.993Z,8.33
2024-01-29T13:30:44.449Z,8.41
2024-01-29T13:33:13.224Z,8.56
2024-01-29T13:35:41.051Z,8.54
2024-01-29T13:38:10.118Z,8.52
2024-01-29T13:40:40.663Z,8.58
2024-01-29T13:43:09.333Z,8.67
2024-01-29T13:45:37.605Z,8.69
2024-01-29T13:48:06.377Z,8.75
2024-01-29T13:50:35.591Z,8.72
2024-01-29T13:53:03.548Z,8.69
2024-01-29T13:55:33.774Z,8.72
2024-01-29T13:58:01.612Z,8.74
2024-01-29T14:00:29.555Z,8.76
2024-01-29T14:02:57.362Z,8.75
2024-01-29T14:05:25.228Z,8.76
2024-01-29T14:07:53.108Z,8.82
2024-01-29T14:10:21.139Z,8.85
2024-01-29T14:12:50.383Z,8.89
2024-01-29T14:15:18.745Z,8.85
2024-01-29T14:17:46.656Z,8.88
2024-01-29T14:20:14.881Z,8.88
2024-01-29T14:22:42.820Z,8.87
2024-01-29T14:25:10.652Z,8.88
2024-01-29T14:27:38.511Z,8.87
2024-01-29T14:30:09.188Z,8.86
2024-01-29T14:32:36.989Z,8.86
2024-01-29T14:35:07.223Z,8.85
2024-01-29T14:37:37.949Z,8.83
2024-01-29T14:40:08.932Z,8.87
2024-01-29T14:42:37.081Z,8.91
2024-01-29T14:45:06.306Z,8.91
2024-01-29T14:47:35.929Z,8.82
2024-01-29T14:50:05.095Z,8.92
2024-01-29T14:52:32.915Z,8.90
2024-01-29T14:55:00.786Z,8.88
2024-01-29T14:57:29.118Z,8.86
2024-01-29T14:59:56.966Z,8.80
2024-01-29T15:02:24.847Z,8.77
2024-01-29T15:04:54.267Z,8.77
2024-01-29T15:07:22.384Z,8.81
2024-01-29T15:09:51.213Z,8.76
2024-01-29T15:12:19.767Z,8.73
2024-01-29T15:14:48.024Z,8.69
2024-01-29T15:17:15.999Z,8.74
2024-01-29T15:19:43.979Z,8.69
2024-01-29T15:22:13.375Z,8.70
2024-01-29T15:24:41.406Z,8.63
2024-01-29T15:27:09.377Z,8.63
2024-01-29T15:29:37.769Z,8.65
2024-01-29T15:32:06.126Z,8.65
2024-01-29T15:34:34.017Z,8.63
2024-01-29T15:37:01.929Z,8.57
2024-01-29T15:39:31.650Z,8.59
2024-01-29T15:41:59.381Z,8.64
2024-01-29T15:44:27.782Z,8.58
2024-01-29T15:46:55.536Z,8.52
2024-01-29T15:49:24.385Z,8.54
2024-01-29T15:51:52.260Z,8.47
2024-01-29T15:54:20.047Z,8.43
2024-01-29T15:56:49.238Z,8.38
2024-01-29T15:59:17.033Z,8.34
2024-01-29T16:01:44.846Z,8.30
2024-01-29T16:04:12.727Z,8.26
2024-01-29T16:06:40.525Z,8.26
2024-01-29T16:09:09.176Z,8.25
2024-01-29T16:11:36.847Z,8.20
2024-01-29T16:14:05.929Z,8.14
2024-01-29T16:16:33.846Z,8.12
2024-01-29T16:19:01.604Z,8.10
2024-01-29T16:21:29.336Z,8.09
2024-01-29T16:23:58.336Z,8.03
2024-01-29T16:26:26.105Z,8.03
2024-01-29T16:28:53.757Z,8.00
2024-01-29T16:31:22.945Z,8.01
2024-01-29T16:33:50.702Z,8.02
2024-01-29T16:36:21.840Z,7.95
2024-01-29T16:38:50.781Z,7.94
2024-01-29T16:41:23.089Z,7.89
2024-01-29T16:43:52.224Z,7.88
2024-01-29T16:46:20.622Z,7.87
2024-01-29T16:48:50.520Z,7.87
2024-01-29T16:51:22.859Z,7.91
2024-01-29T16:53:50.678Z,7.84
2024-01-29T16:56:24.117Z,7.76
2024-01-29T16:58:51.904Z,7.75
2024-01-29T17:01:19.665Z,7.76
2024-01-29T17:03:51.544Z,7.74
2024-01-29T17:06:19.493Z,7.78
2024-01-29T17:08:48.287Z,7.76
2024-01-29T17:11:16.040Z,7.71
2024-01-29T17:13:45.626Z,7.66
2024-01-29T17:16:13.590Z,7.63
2024-01-29T17:18:41.454Z,7.63
2024-01-29T17:21:12.712Z,7.58
2024-01-29T17:23:41.077Z,7.56
2024-01-29T17:26:09.559Z,7.52
2024-01-29T17:28:39.016Z,7.51
2024-01-29T17:31:06.870Z,7.48
2024-01-29T17:33:34.910Z,7.45
2024-01-29T17:36:02.834Z,7.41
2024-01-29T17:38:31.971Z,7.41
2024-01-29T17:40:59.850Z,7.37
2024-01-29T17:43:28.342Z,7.38
2024-01-29T17:45:56.712Z,7.41
2024-01-29T17:48:26.480Z,7.38
2024-01-29T17:50:54.308Z,7.37
2024-01-29T17:53:21.971Z,7.39
2024-01-29T17:55:51.100Z,7.34
2024-01-29T17:58:18.988Z,7.33
2024-01-29T18:00:46.806Z,7.31
2024-01-29T18:03:14.685Z,7.28
2024-01-29T18:05:43.599Z,7.29
2024-01-29T18:08:11.534Z,7.31
2024-01-29T18:10:39.235Z,7.28
2024-01-29T18:13:08.316Z,7.27
2024-01-29T18:15:37.017Z,7.24
2024-01-29T18:18:05.225Z,7.30
2024-01-29T18:20:33.204Z,7.29
2024-01-29T18:23:01.805Z,7.27
2024-01-29T18:25:29.505Z,7.26
2024-01-29T18:27:57.329Z,7.26
2024-01-29T18:30:27.914Z,7.28
2024-01-29T18:32:55.723Z,7.25
2024-01-29T18:35:23.642Z,7.19
2024-01-29T18:37:51.692Z,7.20
2024-01-29T18:40:19.484Z,7.17
2024-01-29T18:42:48.268Z,7.16
2024-01-29T18:45:16.291Z,7.12
2024-01-29T18:47:45.532Z,7.14
2024-01-29T18:50:14.679Z,7.21
2024-01-29T18:52:42.716Z,7.22
2024-01-29T18:55:11.311Z,7.18
2024-01-29T18:57:39.197Z,7.22
2024-01-29T19:00:08.217Z,7.24
2024-01-29T19:02:36.369Z,7.20
2024-01-29T19:05:06.140Z,7.20
2024-01-29T19:07:34.725Z,7.18
2024-01-29T19:10:02.704Z,7.09
2024-01-29T19:12:36.521Z,7.12
2024-01-29T19:15:05.690Z,7.09
2024-01-29T19:17:33.963Z,7.10
2024-01-29T19:20:01.728Z,7.10
2024-01-29T19:22:30.820Z,7.08
2024-01-29T19:24:58.657Z,7.14
2024-01-29T19:27:28.127Z,7.18
2024-01-29T19:29:55.864Z,7.23
2024-01-29T19:32:23.656Z,7.23
2024-01-29T19:34:51.451Z,7.30
2024-01-29T19:37:21.468Z,7.31
2024-01-29T19:39:50.748Z,7.26
2024-01-29T19:42:18.516Z,7.23
2024-01-29T19:44:46.435Z,7.26
2024-01-29T19:47:14.814Z,7.30
2024-01-29T19:49:47.265Z,7.29
2024-01-29T19:52:17.359Z,7.26
2024-01-29T19:54:47.667Z,7.28
2024-01-29T19:57:17.294Z,7.29
2024-01-29T19:59:45.310Z,7.20
2024-01-29T20:02:13.281Z,7.18
2024-01-29T20:04:41.213Z,7.15
2024-01-29T20:07:09.081Z,7.17
2024-01-29T20:09:36.943Z,7.22
2024-01-29T20:12:05.142Z,7.16
2024-01-29T20:14:34.752Z,7.21
2024-01-29T20:17:02.555Z,7.31
2024-01-29T20:19:31.026Z,7.28
2024-01-29T20:21:58.774Z,7.29
2024-01-29T20:24:26.909Z,7.26
2024-01-29T20:26:54.637Z,7.18
2024-01-29T20:29:23.012Z,7.25
2024-01-29T20:31:52.198Z,7.17
2024-01-29T20:34:19.961Z,7.14
2024-01-29T20:36:48.065Z,7.15
2024-01-29T20:39:16.615Z,7.16
2024-01-29T20:41:46.994Z,7.09
2024-01-29T20:44:16.598Z,7.08
2024-01-29T20:46:46.075Z,7.06
2024-01-29T20:49:15.856Z,7.07
2024-01-29T20:51:43.922Z,7.09
2024-01-29T20:54:11.845Z,7.06
2024-01-29T20:56:39.822Z,6.96
2024-01-29T20:59:07.767Z,6.99
2024-01-29T21:01:38.440Z,6.98
2024-01-29T21:04:06.696Z,7.01
2024-01-29T21:06:39.984Z,7.06
2024-01-29T21:09:08.024Z,7.07
2024-01-29T21:11:38.876Z,7.04
2024-01-29T21:14:06.572Z,7.07
2024-01-29T21:16:35.635Z,7.06
2024-01-29T21:19:03.485Z,7.02
2024-01-29T21:21:31.435Z,7.01
2024-01-29T21:24:01.851Z,7.09
2024-01-29T21:26:29.625Z,7.15
2024-01-29T21:28:58.525Z,7.07
2024-01-29T21:31:26.504Z,7.10
2024-01-29T21:33:54.424Z,7.04
2024-01-29T21:36:22.204Z,7.01
2024-01-29T21:38:49.907Z,7.04
2024-01-29T21:41:19.039Z,7.06
2024-01-29T21:43:46.742Z,7.03
2024-01-29T21:46:14.627Z,7.03
2024-01-29T21:48:42.509Z,7.00
2024-01-29T21:51:10.391Z,6.99
2024-01-29T21:53:38.108Z,6.99
2024-01-29T21:56:06.368Z,6.96
2024-01-29T21:58:38.379Z,6.96
2024-01-29T22:01:06.379Z,6.97
2024-01-29T22:03:35.074Z,6.96
2024-01-29T22:06:03.025Z,6.94
2024-01-29T22:08:31.459Z,6.93
2024-01-29T22:10:59.230Z,6.90
2024-01-29T22:13:26.994Z,6.93
2024-01-29T22:15:56.290Z,6.94
2024-01-29T22:18:23.988Z,6.91
2024-01-29T22:20:51.747Z,6.92
2024-01-29T22:23:19.529Z,6.92
2024-01-29T22:25:47.467Z,6.89
2024-01-29T22:28:15.180Z,6.94
2024-01-29T22:30:43.011Z,6.87
2024-01-29T22:33:12.282Z,6.87
2024-01-29T22:35:41.171Z,6.86
2024-01-29T22:38:08.914Z,6.82
2024-01-29T22:40:36.709Z,6.83
2024-01-29T22:43:04.963Z,6.87
2024-01-29T22:45:32.726Z,6.80
2024-01-29T22:48:01.125Z,6.89
2024-01-29T22:50:30.475Z,6.76
2024-01-29T22:52:58.159Z,6.85
2024-01-29T22:55:26.602Z,6.85
2024-01-29T22:57:54.428Z,6.82
2024-01-29T23:00:25.631Z,6.78
2024-01-29T23:02:53.873Z,6.70
2024-01-29T23:05:21.854Z,6.70
2024-01-29T23:07:51.345Z,6.69
2024-01-29T23:10:19.260Z,6.69
2024-01-29T23:12:47.240Z,6.64
2024-01-29T23:15:15.182Z,6.72
2024-01-29T23:17:43.369Z,6.69
2024-01-29T23:20:12.618Z,6.65
2024-01-29T23:22:40.441Z,6.65
2024-01-29T23:25:10.309Z,6.65
2024-01-29T23:27:38.141Z,6.66
2024-01-29T23:30:06.836Z,6.62
2024-01-29T23:32:35.812Z,6.59
2024-01-29T23:35:03.578Z,6.58
2024-01-29T23:37:31.370Z,6.54
2024-01-29T23:39:59.253Z,6.55
2024-01-29T23:42:28.586Z,6.67
2024-01-29T23:44:56.421Z,6.60
2024-01-29T23:47:24.170Z,6.53
2024-01-29T23:49:52.098Z,6.54
2024-01-29T23:52:26.998Z,6.54
2024-01-29T23:54:54.882Z,6.55
2024-01-29T23:57:22.833Z,6.60
2024-01-29T23:59:52.343Z,6.53
